Time;durP1;ratioP1;P1;durP2;ratioP2;P2;SDS_P1;SDS_P2;PMS_P1;PMS_P2;Temp;Humidity;BMP_temperature;BMP_pressure;BME280_temperature;BME280_humidity;BME280_pressure;Samples;Min_cycle;Max_cycle;Signal;HPM_P1;HPM_P2
2021/10/02 00:31:50;;;;;;;12.02;2.40;;;;;;;-144.67;100.00;59104.63;696471;28;970;-63
2021/10/02 00:34:09;;;;;;;10.52;2.60;;;;;;;-144.67;100.00;59104.63;693100;28;1227;-62
2021/10/02 00:35:30;;;;;;;7.95;2.20;;;;;;;-144.67;100.00;59104.63;696491;28;691;-63
2021/10/02 00:37:00;;;;;;;7.50;2.17;;;;;;;-144.67;100.00;59104.63;696458;28;860;-63
2021/10/02 00:44:47;;;;;;;8.50;2.10;;;;;;;-144.67;100.00;59104.63;696391;28;702;-63
2021/10/02 00:45:07;;;;;;;6.78;2.03;;;;;;;-144.67;100.00;59104.63;696297;28;922;-64
2021/10/02 00:45:27;;;;;;;6.43;2.10;;;;;;;-144.67;100.00;59104.63;696569;28;855;-64
2021/10/02 00:45:50;;;;;;;7.33;2.30;;;;;;;-144.67;100.00;59104.63;696329;28;829;-64
2021/10/02 00:46:13;;;;;;;6.18;2.28;;;;;;;-144.67;100.00;59104.63;696320;28;902;-64
2021/10/02 00:46:34;;;;;;;5.75;2.10;;;;;;;-144.67;100.00;59104.63;696453;28;852;-64
2021/10/02 00:46:54;;;;;;;5.63;2.08;;;;;;;-144.67;100.00;59104.63;696457;28;876;-64
2021/10/02 00:47:19;;;;;;;7.03;2.30;;;;;;;-144.67;100.00;59104.63;696368;28;1092;-65
2021/10/02 00:47:48;;;;;;;7.25;2.30;;;;;;;-144.67;100.00;59104.63;696268;28;1279;-64
2021/10/02 00:48:09;;;;;;;6.10;2.28;;;;;;;-144.67;100.00;59104.63;695625;28;1315;-65
2021/10/02 00:48:30;;;;;;;6.47;2.22;;;;;;;-144.67;100.00;59104.63;696519;28;865;-65
2021/10/02 00:48:50;;;;;;;7.17;2.33;;;;;;;-144.67;100.00;59104.63;696507;28;872;-65
2021/10/02 00:49:11;;;;;;;5.73;2.10;;;;;;;-144.67;100.00;59104.63;696324;28;1440;-65
2021/10/02 00:49:38;;;;;;;6.18;2.00;;;;;;;-144.67;100.00;59104.63;696528;28;1038;-66
2021/10/02 00:49:59;;;;;;;6.47;2.20;;;;;;;-144.67;100.00;59104.63;696233;28;810;-65
2021/10/02 00:50:20;;;;;;;6.50;1.93;;;;;;;-144.67;100.00;59104.63;696500;28;844;-66
2021/10/02 00:50:40;;;;;;;6.55;1.90;;;;;;;-144.67;100.00;59104.63;696445;28;987;-66
2021/10/02 00:51:00;;;;;;;8.73;2.30;;;;;;;-144.67;100.00;59104.63;696335;28;1019;-66
2021/10/02 00:51:24;;;;;;;10.03;2.30;;;;;;;-144.67;100.00;59104.63;696850;28;781;-65
2021/10/02 00:51:48;;;;;;;7.57;1.92;;;;;;;-144.67;100.00;59104.63;696554;28;935;-65
2021/10/02 00:52:11;;;;;;;6.00;1.90;;;;;;;-144.67;100.00;59104.63;696386;28;884;-65
2021/10/02 00:52:31;;;;;;;7.80;2.08;;;;;;;-144.67;100.00;59104.63;696587;28;916;-64
2021/10/02 00:52:51;;;;;;;8.13;2.17;;;;;;;-144.67;100.00;59104.63;696005;28;1046;-65
2021/10/02 00:53:13;;;;;;;7.37;2.40;;;;;;;-144.67;100.00;59104.63;696618;28;896;-65
2021/10/02 00:53:34;;;;;;;5.75;2.13;;;;;;;-144.67;100.00;59104.63;696516;28;982;-66
2021/10/02 00:53:54;;;;;;;7.35;2.20;;;;;;;-144.67;100.00;59104.63;696645;28;857;-66
2021/10/02 00:54:14;;;;;;;7.57;2.30;;;;;;;-144.67;100.00;59104.63;696812;28;982;-66
2021/10/02 00:54:35;;;;;;;7.50;2.35;;;;;;;-144.67;100.00;59104.63;696521;28;991;-67
2021/10/02 00:54:55;;;;;;;7.47;2.20;;;;;;;-144.67;100.00;59104.63;696647;28;784;-66
2021/10/02 00:55:16;;;;;;;7.20;2.03;;;;;;;-144.67;100.00;59104.63;697613;28;900;-65
2021/10/02 00:55:36;;;;;;;7.13;2.10;;;;;;;-144.67;100.00;59104.63;697624;28;1914;-65
2021/10/02 00:55:57;;;;;;;6.45;2.05;;;;;;;-144.67;100.00;59104.63;697908;28;907;-66
2021/10/02 00:56:17;;;;;;;6.10;1.97;;;;;;;-144.67;100.00;59104.63;697819;28;832;-66
2021/10/02 00:56:38;;;;;;;6.97;2.00;;;;;;;-144.67;100.00;59104.63;697617;28;979;-66
2021/10/02 00:56:58;;;;;;;6.70;2.03;;;;;;;-144.67;100.00;59104.63;697910;28;891;-65
2021/10/02 00:57:21;;;;;;;7.28;2.15;;;;;;;-144.67;100.00;59104.63;697755;28;910;-66
2021/10/02 00:57:41;;;;;;;7.80;2.33;;;;;;;-144.67;100.00;59104.63;697731;28;1302;-65
2021/10/02 00:58:04;;;;;;;6.83;2.33;;;;;;;-144.67;100.00;59104.63;697796;28;848;-66
2021/10/02 00:58:24;;;;;;;5.97;2.20;;;;;;;-144.67;100.00;59104.63;697320;28;1070;-66
2021/10/02 00:58:48;;;;;;;7.77;2.30;;;;;;;-144.67;100.00;59104.63;697470;28;1233;-67
2021/10/02 00:59:08;;;;;;;6.22;2.42;;;;;;;-144.67;100.00;59104.63;697111;28;914;-66
2021/10/02 00:59:32;;;;;;;6.05;2.30;;;;;;;-144.67;100.00;59104.63;696786;28;1286;-66
2021/10/02 00:59:53;;;;;;;7.03;2.33;;;;;;;-144.67;100.00;59104.63;696960;28;860;-69
2021/10/02 01:00:14;;;;;;;8.50;2.50;;;;;;;-144.67;100.00;59104.63;696849;28;828;-66
2021/10/02 01:00:34;;;;;;;7.47;2.60;;;;;;;-144.67;100.00;59104.63;697323;28;832;-66
2021/10/02 01:00:57;;;;;;;6.40;2.60;;;;;;;-144.67;100.00;59104.63;697181;28;946;-67
2021/10/02 01:02:04;;;;;;;7.20;2.50;;;;;;;-144.67;100.00;59104.63;697017;28;943;-67
2021/10/02 01:02:50;;;;;;;6.82;2.28;;;;;;;-144.67;100.00;59104.63;693613;28;1156;-67
2021/10/02 01:03:33;;;;;;;7.60;2.33;;;;;;;-144.67;100.00;59104.63;692655;28;1819;-67
2021/10/02 01:04:02;;;;;;;5.80;2.22;;;;;;;-144.67;100.00;59104.63;694106;28;1394;-66
2021/10/02 01:04:48;;;;;;;8.35;2.60;;;;;;;-144.67;100.00;59104.63;696797;28;1100;-67
2021/10/02 01:05:37;;;;;;;6.65;2.65;;;;;;;-144.67;100.00;59104.63;697903;28;1013;-67
2021/10/02 01:06:23;;;;;;;6.00;2.50;;;;;;;-144.67;100.00;59104.63;697579;28;918;-66
2021/10/02 01:07:09;;;;;;;7.25;2.60;;;;;;;-144.67;100.00;59104.63;691924;28;1416;-66
2021/10/02 01:07:56;;;;;;;6.13;2.70;;;;;;;-144.67;100.00;59104.63;691883;28;1434;-67
2021/10/02 01:08:19;;;;;;;6.55;2.58;;;;;;;-144.67;100.00;59104.63;697749;28;1049;-67
2021/10/02 01:09:12;;;;;;;6.00;2.50;;;;;;;-144.67;100.00;59104.63;697789;28;969;-67
2021/10/02 01:10:06;;;;;;;9.23;2.67;;;;;;;-144.67;100.00;59104.63;696360;28;843;-68
2021/10/02 01:11:04;;;;;;;6.80;2.50;;;;;;;-144.67;100.00;59104.63;696182;28;1307;-67
2021/10/02 01:11:39;;;;;;;5.72;2.40;;;;;;;-144.67;100.00;59104.63;696356;28;942;-66
2021/10/02 01:12:13;;;;;;;6.35;2.30;;;;;;;-144.67;100.00;59104.63;696200;28;900;-68
2021/10/02 01:13:10;;;;;;;6.57;2.38;;;;;;;-144.67;100.00;59104.63;696349;28;840;-67
2021/10/02 01:13:37;;;;;;;8.93;2.50;;;;;;;-144.67;100.00;59104.63;696337;28;930;-68
2021/10/02 01:14:15;;;;;;;7.50;2.33;;;;;;;-144.67;100.00;59104.63;696342;28;834;-66
2021/10/02 01:14:56;;;;;;;5.68;2.60;;;;;;;-144.67;100.00;59104.63;696252;28;985;-67
2021/10/02 01:15:32;;;;;;;7.03;2.40;;;;;;;-144.67;100.00;59104.63;695800;28;1177;-67
2021/10/02 01:16:09;;;;;;;7.47;2.40;;;;;;;-144.67;100.00;59104.63;696359;28;970;-67
2021/10/02 01:16:37;;;;;;;7.57;2.70;;;;;;;-144.67;100.00;59104.63;696262;28;832;-67
2021/10/02 01:17:02;;;;;;;8.60;2.70;;;;;;;-144.67;100.00;59104.63;696377;28;927;-67
2021/10/02 01:17:35;;;;;;;6.80;2.70;;;;;;;-144.67;100.00;59104.63;696336;28;886;-67
2021/10/02 01:18:01;;;;;;;7.45;2.45;;;;;;;-144.67;100.00;59104.63;696233;28;885;-67
2021/10/02 01:18:45;;;;;;;7.90;2.80;;;;;;;-144.67;100.00;59104.63;696254;28;848;-67
2021/10/02 01:19:05;;;;;;;6.40;2.70;;;;;;;-144.67;100.00;59104.63;696280;28;816;-67
2021/10/02 01:19:37;;;;;;;7.00;2.63;;;;;;;-144.67;100.00;59104.63;696386;28;891;-67
2021/10/02 01:20:05;;;;;;;5.97;2.40;;;;;;;-144.67;100.00;59104.63;696260;28;824;-67
2021/10/02 01:21:10;;;;;;;6.72;2.20;;;;;;;-144.67;100.00;59104.63;696412;28;874;-67
2021/10/02 01:21:55;;;;;;;6.82;2.60;;;;;;;-144.67;100.00;59104.63;690267;28;1246;-66
2021/10/02 01:22:33;;;;;;;8.75;2.50;;;;;;;-144.67;100.00;59104.63;690420;28;863;-67
2021/10/02 01:23:12;;;;;;;8.88;2.70;;;;;;;-144.67;100.00;59104.63;690037;28;928;-66
2021/10/02 01:23:54;;;;;;;7.15;2.60;;;;;;;-144.67;100.00;59104.63;689729;28;1370;-66
2021/10/02 01:24:34;;;;;;;6.32;2.30;;;;;;;-144.67;100.00;59104.63;690342;28;980;-66
2021/10/02 01:25:25;;;;;;;6.88;2.50;;;;;;;-144.67;100.00;59104.63;690426;28;900;-66
2021/10/02 01:26:11;;;;;;;8.10;2.55;;;;;;;-144.67;100.00;59104.63;690316;28;996;-65
2021/10/02 01:27:02;;;;;;;7.22;2.25;;;;;;;-144.67;100.00;59104.63;690414;28;1034;-65
2021/10/02 01:27:57;;;;;;;7.30;2.30;;;;;;;-144.67;100.00;59104.63;690378;28;1236;-64
2021/10/02 01:28:19;;;;;;;10.52;2.53;;;;;;;-144.67;100.00;59104.63;696107;28;855;-67
2021/10/02 01:28:41;;;;;;;5.25;2.20;;;;;;;-144.67;100.00;59104.63;696261;28;1090;-65
2021/10/02 01:29:07;;;;;;;6.12;2.28;;;;;;;-144.67;100.00;59104.63;696386;28;942;-66
2021/10/02 01:29:32;;;;;;;7.47;2.30;;;;;;;-144.67;100.00;59104.63;696226;28;848;-66
2021/10/02 01:29:54;;;;;;;7.00;2.20;;;;;;;-144.67;100.00;59104.63;696299;28;957;-65
2021/10/02 01:30:26;;;;;;;9.65;2.40;;;;;;;-144.67;100.00;59104.63;696264;28;899;-66
2021/10/02 01:31:22;;;;;;;8.05;2.50;;;;;;;-144.67;100.00;59104.63;696308;28;867;-67
2021/10/02 01:32:01;;;;;;;6.80;2.30;;;;;;;-144.67;100.00;59104.63;696333;28;832;-67
2021/10/02 01:32:36;;;;;;;8.27;2.50;;;;;;;-144.67;100.00;59104.63;695853;28;896;-64
2021/10/02 01:33:04;;;;;;;7.82;2.30;;;;;;;-144.67;100.00;59104.63;695699;28;875;-65
2021/10/02 01:34:13;;;;;;;6.60;2.25;;;;;;;-144.67;100.00;59104.63;695963;28;1100;-65
2021/10/02 01:35:29;;;;;;;5.63;2.35;;;;;;;-144.67;100.00;59104.63;696329;28;1006;-65
2021/10/02 01:36:23;;;;;;;6.90;2.20;;;;;;;-144.67;100.00;59104.63;696361;28;950;-64
2021/10/02 01:47:16;;;;;;;5.15;2.40;;;;;;;-144.67;100.00;59104.63;690394;28;1301;-65
2021/10/02 01:47:46;;;;;;;6.53;2.33;;;;;;;-144.67;100.00;59104.63;690339;28;1444;-66
2021/10/02 01:48:13;;;;;;;7.70;2.47;;;;;;;-144.67;100.00;59104.63;690315;28;939;-66
2021/10/02 01:48:36;;;;;;;7.00;2.17;;;;;;;-144.67;100.00;59104.63;690349;28;913;-66
2021/10/02 01:48:57;;;;;;;5.68;2.47;;;;;;;-144.67;100.00;59104.63;690462;28;1039;-66
2021/10/02 01:49:19;;;;;;;8.40;2.53;;;;;;;-144.67;100.00;59104.63;690329;28;994;-65
2021/10/02 01:49:44;;;;;;;6.95;2.33;;;;;;;-144.67;100.00;59104.63;690503;28;991;-65
2021/10/02 01:50:06;;;;;;;7.72;2.60;;;;;;;-144.67;100.00;59104.63;690283;28;880;-64
2021/10/02 01:50:33;;;;;;;8.05;2.67;;;;;;;-144.67;100.00;59104.63;690321;28;1022;-64
2021/10/02 01:50:55;;;;;;;6.78;2.50;;;;;;;-144.67;100.00;59104.63;690337;28;844;-64
2021/10/02 01:51:16;;;;;;;7.43;2.53;;;;;;;-144.67;100.00;59104.63;690336;28;959;-66
2021/10/02 01:51:37;;;;;;;6.15;2.40;;;;;;;-144.67;100.00;59104.63;690515;28;956;-65
2021/10/02 01:51:58;;;;;;;6.00;2.53;;;;;;;-144.67;100.00;59104.63;692545;28;1106;-65
2021/10/02 01:52:31;;;;;;;6.53;2.60;;;;;;;-144.67;100.00;59104.63;695799;28;793;-65
2021/10/02 01:53:09;;;;;;;6.28;2.60;;;;;;;-144.67;100.00;59104.63;695338;28;1168;-64
2021/10/02 01:53:34;;;;;;;7.97;2.60;;;;;;;-144.67;100.00;59104.63;696107;28;911;-66
2021/10/02 01:53:55;;;;;;;6.60;2.40;;;;;;;-144.67;100.00;59104.63;695879;28;1519;-65
2021/10/02 01:54:16;;;;;;;7.40;2.50;;;;;;;-144.67;100.00;59104.63;696213;28;947;-66
2021/10/02 01:54:37;;;;;;;7.88;2.70;;;;;;;-144.67;100.00;59104.63;696335;28;935;-66
2021/10/02 01:55:01;;;;;;;7.50;2.60;;;;;;;-144.67;100.00;59104.63;696184;28;895;-65
2021/10/02 01:55:23;;;;;;;7.03;2.67;;;;;;;-144.67;100.00;59104.63;696373;28;914;-66
2021/10/02 01:55:44;;;;;;;6.05;2.60;;;;;;;-144.67;100.00;59104.63;696320;28;901;-66
2021/10/02 01:56:08;;;;;;;5.95;2.45;;;;;;;-144.67;100.00;59104.63;696357;28;974;-66
2021/10/02 01:56:28;;;;;;;6.57;2.53;;;;;;;-144.67;100.00;59104.63;696251;28;927;-67
2021/10/02 01:56:50;;;;;;;6.00;2.50;;;;;;;-144.67;100.00;59104.63;696294;28;1082;-66
2021/10/02 01:57:12;;;;;;;7.10;2.60;;;;;;;-144.67;100.00;59104.63;696292;28;848;-66
2021/10/02 01:57:38;;;;;;;6.28;2.50;;;;;;;-144.67;100.00;59104.63;696321;28;1287;-66
2021/10/02 01:58:05;;;;;;;7.80;2.60;;;;;;;-144.67;100.00;59104.63;696253;28;1364;-66
2021/10/02 01:58:26;;;;;;;6.80;2.60;;;;;;;-144.67;100.00;59104.63;696245;28;954;-66
2021/10/02 01:58:48;;;;;;;6.32;2.70;;;;;;;-144.67;100.00;59104.63;696199;28;1011;-66
2021/10/02 01:59:11;;;;;;;9.23;2.70;;;;;;;-144.67;100.00;59104.63;696134;28;1487;-65
2021/10/02 01:59:33;;;;;;;7.75;2.50;;;;;;;-144.67;100.00;59104.63;696253;28;930;-66
2021/10/02 01:59:55;;;;;;;6.75;2.60;;;;;;;-144.67;100.00;59104.63;696433;28;882;-66
2021/10/02 02:00:17;;;;;;;6.57;2.90;;;;;;;-144.67;100.00;59104.63;696285;28;975;-67
2021/10/02 02:00:41;;;;;;;8.77;2.90;;;;;;;-144.67;100.00;59104.63;696192;28;1014;-66
2021/10/02 02:01:04;;;;;;;7.60;2.80;;;;;;;-144.67;100.00;59104.63;696197;28;1094;-66
2021/10/02 02:01:24;;;;;;;6.90;2.70;;;;;;;-144.67;100.00;59104.63;696241;28;1015;-67
2021/10/02 02:01:48;;;;;;;5.72;2.88;;;;;;;-144.67;100.00;59104.63;696355;28;1046;-67
2021/10/02 02:02:09;;;;;;;5.80;3.00;;;;;;;-144.67;100.00;59104.63;696359;28;913;-67
2021/10/02 02:02:33;;;;;;;6.40;2.70;;;;;;;-144.67;100.00;59104.63;696151;28;955;-67
2021/10/02 02:02:57;;;;;;;6.03;2.30;;;;;;;-144.67;100.00;59104.63;695903;28;951;-67
2021/10/02 02:03:23;;;;;;;6.85;2.78;;;;;;;-144.67;100.00;59104.63;696181;28;1094;-67
2021/10/02 02:03:46;;;;;;;5.90;2.50;;;;;;;-144.67;100.00;59104.63;696309;28;1295;-68
2021/10/02 02:04:07;;;;;;;6.85;2.65;;;;;;;-144.67;100.00;59104.63;696315;28;930;-67
2021/10/02 02:04:29;;;;;;;6.97;2.60;;;;;;;-144.67;100.00;59104.63;696168;28;891;-67
2021/10/02 02:04:51;;;;;;;6.05;2.30;;;;;;;-144.67;100.00;59104.63;696321;28;1039;-66
2021/10/02 02:05:13;;;;;;;6.53;2.20;;;;;;;-144.67;100.00;59104.63;696379;28;824;-67
2021/10/02 02:05:35;;;;;;;5.30;2.40;;;;;;;-144.67;100.00;59104.63;696354;28;879;-67
2021/10/02 02:05:55;;;;;;;6.63;2.75;;;;;;;-144.67;100.00;59104.63;696405;28;865;-66
2021/10/02 02:06:18;;;;;;;6.10;2.60;;;;;;;-144.67;100.00;59104.63;696024;28;1181;-67
2021/10/02 02:06:43;;;;;;;6.13;2.80;;;;;;;-144.67;100.00;59104.63;696257;28;954;-67
2021/10/02 02:07:04;;;;;;;5.38;2.33;;;;;;;-144.67;100.00;59104.63;696257;28;872;-67
2021/10/02 02:07:27;;;;;;;5.95;2.50;;;;;;;-144.67;100.00;59104.63;696033;28;1324;-67
2021/10/02 02:07:57;;;;;;;7.18;2.80;;;;;;;-144.67;100.00;59104.63;696279;28;891;-67
2021/10/02 02:08:21;;;;;;;6.15;2.60;;;;;;;-144.67;100.00;59104.63;696205;28;844;-68
2021/10/02 02:08:42;;;;;;;6.97;2.55;;;;;;;-144.67;100.00;59104.63;696174;28;979;-67
2021/10/02 02:09:08;;;;;;;6.45;2.60;;;;;;;-144.67;100.00;59104.63;696281;28;863;-66
2021/10/02 02:09:37;;;;;;;7.80;2.80;;;;;;;-144.67;100.00;59104.63;696153;28;904;-66
2021/10/02 02:09:59;;;;;;;6.10;2.70;;;;;;;-144.67;100.00;59104.63;696222;28;836;-67
2021/10/02 02:10:22;;;;;;;6.30;2.80;;;;;;;-144.67;100.00;59104.63;696288;28;1046;-67
2021/10/02 02:10:44;;;;;;;6.25;2.58;;;;;;;-144.67;100.00;59104.63;696253;28;875;-67
2021/10/02 02:11:06;;;;;;;5.68;2.60;;;;;;;-144.67;100.00;59104.63;696275;28;899;-66
2021/10/02 02:11:30;;;;;;;6.20;2.67;;;;;;;-144.67;100.00;59104.63;696307;28;1022;-66
2021/10/02 02:11:50;;;;;;;6.15;2.50;;;;;;;-144.67;100.00;59104.63;696173;28;1042;-67
2021/10/02 02:12:12;;;;;;;7.33;2.70;;;;;;;-144.67;100.00;59104.63;696282;28;982;-68
2021/10/02 02:12:37;;;;;;;6.82;2.50;;;;;;;-144.67;100.00;59104.63;696246;28;824;-66
2021/10/02 02:12:59;;;;;;;6.55;2.50;;;;;;;-144.67;100.00;59104.63;695524;28;1332;-67
2021/10/02 02:13:21;;;;;;;6.70;2.70;;;;;;;-144.67;100.00;59104.63;696332;28;966;-67
2021/10/02 02:13:45;;;;;;;7.82;2.70;;;;;;;-144.67;100.00;59104.63;696210;28;975;-66
2021/10/02 02:14:10;;;;;;;7.20;2.90;;;;;;;-144.67;100.00;59104.63;696365;28;1050;-66
2021/10/02 02:14:31;;;;;;;7.95;2.80;;;;;;;-144.67;100.00;59104.63;696209;28;1066;-67
2021/10/02 02:14:52;;;;;;;6.55;2.60;;;;;;;-144.67;100.00;59104.63;696191;28;979;-67
2021/10/02 02:15:13;;;;;;;5.20;2.60;;;;;;;-144.67;100.00;59104.63;696300;28;1046;-68
2021/10/02 02:15:35;;;;;;;6.32;2.80;;;;;;;-144.67;100.00;59104.63;696187;28;1965;-67
2021/10/02 02:15:59;;;;;;;7.20;2.80;;;;;;;-144.67;100.00;59104.63;696006;28;974;-67
2021/10/02 02:16:20;;;;;;;7.07;2.90;;;;;;;-144.67;100.00;59104.63;696295;28;931;-67
2021/10/02 02:16:44;;;;;;;6.07;2.72;;;;;;;-144.67;100.00;59104.63;696068;28;1364;-67
2021/10/02 02:17:06;;;;;;;5.15;2.63;;;;;;;-144.67;100.00;59104.63;696256;28;856;-68
2021/10/02 02:17:28;;;;;;;6.68;2.60;;;;;;;-144.67;100.00;59104.63;696163;28;1227;-68
2021/10/02 02:17:52;;;;;;;6.15;2.50;;;;;;;-144.67;100.00;59104.63;696123;28;1085;-66
2021/10/02 02:18:16;;;;;;;7.30;2.92;;;;;;;-144.67;100.00;59104.63;696246;28;887;-67
2021/10/02 02:18:37;;;;;;;7.15;2.83;;;;;;;-144.67;100.00;59104.63;696080;28;906;-66
2021/10/02 02:18:59;;;;;;;6.13;2.80;;;;;;;-144.67;100.00;59104.63;696155;28;1058;-68
2021/10/02 02:19:24;;;;;;;5.80;2.78;;;;;;;-144.67;100.00;59104.63;696288;28;1019;-66
2021/10/02 02:19:45;;;;;;;6.07;2.95;;;;;;;-144.67;100.00;59104.63;696134;28;828;-66
2021/10/02 02:20:07;;;;;;;6.82;2.83;;;;;;;-144.67;100.00;59104.63;696159;28;908;-66
2021/10/02 02:20:35;;;;;;;7.05;2.70;;;;;;;-144.67;100.00;59104.63;696036;28;1094;-66
2021/10/02 02:20:59;;;;;;;6.45;2.90;;;;;;;-144.67;100.00;59104.63;696238;28;888;-66
2021/10/02 02:21:25;;;;;;;6.15;2.80;;;;;;;-144.67;100.00;59104.63;696186;28;860;-67
2021/10/02 02:21:46;;;;;;;7.82;3.30;;;;;;;-144.67;100.00;59104.63;696597;28;990;-67
2021/10/02 02:22:09;;;;;;;8.30;3.10;;;;;;;-144.67;100.00;59104.63;696100;28;995;-66
2021/10/02 02:22:30;;;;;;;8.00;2.80;;;;;;;-144.67;100.00;59104.63;696118;28;1140;-66
2021/10/02 02:22:50;;;;;;;8.48;2.90;;;;;;;-144.67;100.00;59104.63;695797;28;880;-66
2021/10/02 02:23:14;;;;;;;8.10;2.87;;;;;;;-144.67;100.00;59104.63;696190;28;810;-67
2021/10/02 02:23:35;;;;;;;7.30;2.80;;;;;;;-144.67;100.00;59104.63;696327;28;907;-67
2021/10/02 02:23:56;;;;;;;6.10;2.72;;;;;;;-144.67;100.00;59104.63;696291;28;879;-66
2021/10/02 02:24:17;;;;;;;5.40;2.60;;;;;;;-144.67;100.00;59104.63;696074;28;962;-67
2021/10/02 02:24:37;;;;;;;7.27;2.63;;;;;;;-144.67;100.00;59104.63;696097;28;1196;-68
2021/10/02 02:24:58;;;;;;;6.63;2.80;;;;;;;-144.67;100.00;59104.63;696256;28;969;-67
2021/10/02 02:25:18;;;;;;;6.73;2.90;;;;;;;-144.67;100.00;59104.63;696184;28;792;-67
2021/10/02 02:25:44;;;;;;;6.90;2.88;;;;;;;-144.67;100.00;59104.63;696284;28;974;-67
2021/10/02 02:26:05;;;;;;;5.70;2.85;;;;;;;-144.67;100.00;59104.63;696115;28;984;-66
2021/10/02 02:26:27;;;;;;;6.78;2.80;;;;;;;-144.67;100.00;59104.63;696222;28;788;-67
2021/10/02 02:26:47;;;;;;;7.25;2.80;;;;;;;-144.67;100.00;59104.63;696126;28;1035;-67
2021/10/02 02:27:08;;;;;;;6.45;2.97;;;;;;;-144.67;100.00;59104.63;696196;28;990;-67
2021/10/02 02:27:29;;;;;;;6.47;2.90;;;;;;;-144.67;100.00;59104.63;696145;28;1381;-67
2021/10/02 02:27:53;;;;;;;6.55;2.90;;;;;;;-144.67;100.00;59104.63;696270;28;860;-67
2021/10/02 02:28:14;;;;;;;8.05;3.08;;;;;;;-144.67;100.00;59104.63;696243;28;847;-67
2021/10/02 02:28:35;;;;;;;6.97;2.88;;;;;;;-144.67;100.00;59104.63;696167;28;891;-67
2021/10/02 02:28:56;;;;;;;7.28;3.00;;;;;;;-144.67;100.00;59104.63;696180;28;841;-67
2021/10/02 02:29:17;;;;;;;8.10;2.95;;;;;;;-144.67;100.00;59104.63;696204;28;849;-67
2021/10/02 02:29:37;;;;;;;7.70;3.03;;;;;;;-144.67;100.00;59104.63;696252;28;1277;-67
2021/10/02 02:29:58;;;;;;;6.60;2.97;;;;;;;-144.67;100.00;59104.63;696116;28;975;-68
2021/10/02 02:30:19;;;;;;;6.90;2.80;;;;;;;-144.67;100.00;59104.63;696263;28;711;-67
2021/10/02 02:30:40;;;;;;;6.85;2.75;;;;;;;-144.67;100.00;59104.63;696209;28;866;-68
2021/10/02 02:31:01;;;;;;;7.32;2.80;;;;;;;-144.67;100.00;59104.63;696193;28;1017;-67
2021/10/02 02:31:21;;;;;;;7.03;2.87;;;;;;;-144.67;100.00;59104.63;696228;28;907;-67
2021/10/02 02:31:42;;;;;;;7.53;3.10;;;;;;;-144.67;100.00;59104.63;696272;28;870;-68
2021/10/02 02:32:03;;;;;;;7.43;3.15;;;;;;;-144.67;100.00;59104.63;696295;28;824;-68
2021/10/02 02:32:23;;;;;;;6.03;2.97;;;;;;;-144.67;100.00;59104.63;696188;28;883;-67
2021/10/02 02:32:45;;;;;;;6.47;2.80;;;;;;;-144.67;100.00;59104.63;696047;28;1120;-67
2021/10/02 02:33:18;;;;;;;6.47;3.10;;;;;;;-144.67;100.00;59104.63;696316;28;1082;-67
2021/10/02 02:33:41;;;;;;;7.22;3.25;;;;;;;-144.67;100.00;59104.63;696116;28;879;-67
2021/10/02 02:34:02;;;;;;;6.80;2.80;;;;;;;-144.67;100.00;59104.63;696301;28;959;-67
2021/10/02 02:34:24;;;;;;;7.20;2.80;;;;;;;-144.67;100.00;59104.63;696197;28;875;-65
2021/10/02 02:34:46;;;;;;;5.82;2.80;;;;;;;-144.67;100.00;59104.63;696146;28;925;-67
2021/10/02 02:35:08;;;;;;;6.93;2.97;;;;;;;-144.67;100.00;59104.63;696271;28;973;-66
2021/10/02 02:35:28;;;;;;;7.63;2.90;;;;;;;-144.67;100.00;59104.63;696072;28;1965;-68
2021/10/02 02:35:49;;;;;;;7.00;3.00;;;;;;;-144.67;100.00;59104.63;696260;28;854;-67
2021/10/02 02:36:09;;;;;;;7.20;3.00;;;;;;;-144.67;100.00;59104.63;696287;28;900;-67
2021/10/02 02:36:30;;;;;;;7.38;2.90;;;;;;;-144.67;100.00;59104.63;696075;28;809;-67
2021/10/02 02:36:50;;;;;;;7.77;3.00;;;;;;;-144.67;100.00;59104.63;696109;28;1014;-66
2021/10/02 02:37:10;;;;;;;6.93;2.73;;;;;;;-144.67;100.00;59104.63;696143;28;935;-66
2021/10/02 02:37:31;;;;;;;8.23;2.93;;;;;;;-144.67;100.00;59104.63;696146;28;1385;-67
2021/10/02 02:37:52;;;;;;;8.40;2.90;;;;;;;-144.67;100.00;59104.63;696229;28;856;-67
2021/10/02 02:38:13;;;;;;;7.95;2.80;;;;;;;-144.67;100.00;59104.63;696161;28;955;-67
2021/10/02 02:38:33;;;;;;;5.88;2.70;;;;;;;-144.67;100.00;59104.63;696149;28;1058;-65
2021/10/02 02:38:54;;;;;;;7.03;3.00;;;;;;;-144.67;100.00;59104.63;696198;28;904;-67
2021/10/02 02:39:14;;;;;;;8.30;3.00;;;;;;;-144.67;100.00;59104.63;696281;28;832;-67
2021/10/02 02:39:35;;;;;;;7.90;2.93;;;;;;;-144.67;100.00;59104.63;696307;28;943;-67
2021/10/02 02:39:58;;;;;;;6.72;2.80;;;;;;;-144.67;100.00;59104.63;696067;28;1505;-66
2021/10/02 02:40:18;;;;;;;5.90;2.75;;;;;;;-144.67;100.00;59104.63;696321;28;848;-66
2021/10/02 02:40:39;;;;;;;7.37;2.87;;;;;;;-144.67;100.00;59104.63;696101;28;824;-67
2021/10/02 02:41:00;;;;;;;6.55;2.80;;;;;;;-144.67;100.00;59104.63;696190;28;955;-67
2021/10/02 02:41:20;;;;;;;6.88;2.78;;;;;;;-144.67;100.00;59104.63;696315;28;860;-66
2021/10/02 02:41:44;;;;;;;7.90;2.97;;;;;;;-144.67;100.00;59104.63;696260;28;892;-66
2021/10/02 02:42:04;;;;;;;8.82;3.00;;;;;;;-144.67;100.00;59104.63;696359;28;863;-67
2021/10/02 02:42:25;;;;;;;7.15;2.67;;;;;;;-144.67;100.00;59104.63;696229;28;948;-66
2021/10/02 02:42:49;;;;;;;7.70;2.90;;;;;;;-144.67;100.00;59104.63;695591;28;876;-66
2021/10/02 02:43:10;;;;;;;5.50;3.00;;;;;;;-144.67;100.00;59104.63;696318;28;877;-67
2021/10/02 02:43:34;;;;;;;5.60;2.83;;;;;;;-144.67;100.00;59104.63;696438;28;974;-66
2021/10/02 02:43:54;;;;;;;6.75;2.83;;;;;;;-144.67;100.00;59104.63;695942;28;1039;-67
2021/10/02 02:44:15;;;;;;;7.28;2.95;;;;;;;-144.67;100.00;59104.63;696428;28;824;-66
2021/10/02 02:44:36;;;;;;;6.80;2.83;;;;;;;-144.67;100.00;59104.63;696195;28;983;-66
2021/10/02 02:44:56;;;;;;;6.27;2.80;;;;;;;-144.67;100.00;59104.63;696005;28;1194;-66
2021/10/02 02:45:18;;;;;;;6.10;2.73;;;;;;;-144.67;100.00;59104.63;696330;28;868;-66
2021/10/02 02:45:43;;;;;;;7.80;2.80;;;;;;;-144.67;100.00;59104.63;696224;28;895;-66
2021/10/02 02:46:09;;;;;;;6.63;2.75;;;;;;;-144.67;100.00;59104.63;696237;28;982;-68
2021/10/02 02:46:36;;;;;;;6.25;3.05;;;;;;;-144.67;100.00;59104.63;696199;28;843;-67
2021/10/02 02:47:06;;;;;;;6.97;3.00;;;;;;;-144.67;100.00;59104.63;696111;28;1045;-66
2021/10/02 02:47:29;;;;;;;7.25;3.20;;;;;;;-144.67;100.00;59104.63;696178;28;1418;-66
2021/10/02 02:47:56;;;;;;;6.45;2.88;;;;;;;-144.67;100.00;59104.63;696297;28;899;-66
2021/10/02 02:48:30;;;;;;;6.75;3.20;;;;;;;-144.67;100.00;59104.63;696196;28;903;-66
2021/10/02 02:49:09;;;;;;;6.70;2.80;;;;;;;-144.67;100.00;59104.63;696218;28;928;-67
2021/10/02 02:49:42;;;;;;;6.28;3.00;;;;;;;-144.67;100.00;59104.63;696249;28;955;-67
2021/10/02 02:50:09;;;;;;;6.85;3.40;;;;;;;-144.67;100.00;59104.63;696188;28;898;-67
2021/10/02 02:50:37;;;;;;;7.57;3.20;;;;;;;-144.67;100.00;59104.63;696386;28;948;-67
2021/10/02 02:51:16;;;;;;;6.18;3.00;;;;;;;-144.67;100.00;59104.63;696165;28;1002;-66
2021/10/02 02:51:58;;;;;;;6.28;3.10;;;;;;;-144.67;100.00;59104.63;696326;28;929;-67
2021/10/02 02:52:40;;;;;;;7.18;2.95;;;;;;;-144.67;100.00;59104.63;696245;28;907;-68
2021/10/02 02:53:16;;;;;;;8.00;3.20;;;;;;;-144.67;100.00;59104.63;696497;28;848;-67
2021/10/02 02:53:58;;;;;;;6.13;3.15;;;;;;;-144.67;100.00;59104.63;696737;28;1097;-66
2021/10/02 02:54:29;;;;;;;7.30;3.30;;;;;;;-144.67;100.00;59104.63;696761;28;903;-67
2021/10/02 02:55:05;;;;;;;6.47;3.38;;;;;;;-144.67;100.00;59104.63;696688;28;903;-67
2021/10/02 02:55:31;;;;;;;7.78;3.20;;;;;;;-144.67;100.00;59104.63;696599;28;1910;-67
2021/10/02 02:56:01;;;;;;;7.07;3.28;;;;;;;-144.67;100.00;59104.63;696832;28;982;-66
2021/10/02 02:56:31;;;;;;;8.23;3.60;;;;;;;-144.67;100.00;59104.63;696618;28;911;-67
2021/10/02 02:56:54;;;;;;;7.15;3.13;;;;;;;-144.67;100.00;59104.63;696736;28;867;-67
2021/10/02 02:57:21;;;;;;;7.80;3.40;;;;;;;-144.67;100.00;59104.63;696518;28;1178;-66
2021/10/02 02:57:44;;;;;;;8.73;3.40;;;;;;;-144.67;100.00;59104.63;696821;28;1046;-67